Time;durP1;ratioP1;P1;durP2;ratioP2;P2;SDS_P1;SDS_P2;PMS_P1;PMS_P2;Temp;Humidity;BMP_temperature;BMP_pressure;BME280_temperature;BME280_humidity;BME280_pressure;Samples;Min_cycle;Max_cycle;Signal;HPM_P1;HPM_P2
2023/11/21 00:01:20;;;;;;;2.63;1.65;;;23.00;58.10;;;;;;4921007;28;90057;-91
2023/11/21 00:03:48;;;;;;;3.08;1.65;;;23.00;58.10;;;;;;4919311;28;88338;-90
2023/11/21 00:06:14;;;;;;;2.15;1.60;;;22.90;58.10;;;;;;4920813;28;88356;-91
2023/11/21 00:08:40;;;;;;;1.88;1.50;;;22.90;58.00;;;;;;4925109;28;87726;-91
2023/11/21 00:11:08;;;;;;;2.55;1.88;;;22.90;58.00;;;;;;4919378;28;89142;-91
2023/11/21 00:13:34;;;;;;;2.05;1.67;;;22.90;58.00;;;;;;4933581;28;87596;-90
2023/11/21 00:16:00;;;;;;;2.05;1.58;;;22.80;58.00;;;;;;4912227;28;89533;-93
2023/11/21 00:18:35;;;;;;;2.70;1.67;;;22.80;58.10;;;;;;4920030;28;90334;-91
2023/11/21 00:21:01;;;;;;;1.88;1.60;;;22.80;58.10;;;;;;4910848;28;90152;-90
2023/11/21 00:23:27;;;;;;;2.70;1.50;;;22.80;58.20;;;;;;4935670;28;87449;-90
2023/11/21 00:25:52;;;;;;;2.70;1.88;;;22.80;58.10;;;;;;4918731;28;89062;-91
2023/11/21 00:28:18;;;;;;;2.28;1.55;;;22.80;58.20;;;;;;4921197;28;91242;-91
2023/11/21 00:30:44;;;;;;;2.25;1.70;;;22.80;58.10;;;;;;4919815;28;91166;-90
2023/11/21 00:33:10;;;;;;;2.35;1.70;;;22.80;58.10;;;;;;4912587;28;87755;-92
2023/11/21 00:35:36;;;;;;;1.80;1.60;;;22.80;58.10;;;;;;4919370;28;89243;-91
2023/11/21 00:38:03;;;;;;;1.88;1.35;;;22.70;58.70;;;;;;4919891;28;91478;-91
2023/11/21 00:40:31;;;;;;;2.47;2.00;;;22.70;58.00;;;;;;4911452;28;89123;-92
2023/11/21 00:42:57;;;;;;;4.45;1.95;;;22.70;58.00;;;;;;4919220;28;87411;-90
2023/11/21 00:45:22;;;;;;;3.22;1.95;;;22.60;58.10;;;;;;4920395;28;88493;-93
2023/11/21 00:47:48;;;;;;;2.47;1.98;;;22.60;58.10;;;;;;4919493;28;90830;-92
2023/11/21 00:50:15;;;;;;;2.58;1.80;;;22.60;58.20;;;;;;4918334;28;89091;-93
2023/11/21 00:52:41;;;;;;;2.22;1.83;;;22.60;58.30;;;;;;4920094;28;88589;-91
2023/11/21 00:55:07;;;;;;;2.63;1.65;;;22.60;58.20;;;;;;4920298;28;88291;-92
2023/11/21 00:57:39;;;;;;;2.83;1.80;;;22.60;58.30;;;;;;4918118;28;89587;-91
2023/11/21 01:00:14;;;;;;;2.55;2.00;;;22.60;58.30;;;;;;4920895;28;89703;-90
2023/11/21 01:02:39;;;;;;;4.20;1.73;;;22.50;58.30;;;;;;4921606;28;87645;-92
2023/11/21 01:05:07;;;;;;;2.63;1.95;;;22.50;58.30;;;;;;4921494;28;88416;-92
2023/11/21 01:07:36;;;;;;;2.50;1.73;;;22.50;58.40;;;;;;4899976;28;89581;-90
2023/11/21 01:10:07;;;;;;;4.32;1.65;;;22.50;58.30;;;;;;4918732;28;90192;-91
2023/11/21 01:12:35;;;;;;;1.45;1.35;;;22.40;58.20;;;;;;4918693;28;87645;-92
2023/11/21 01:15:01;;;;;;;1.80;1.53;;;22.40;58.20;;;;;;4918627;28;88978;-93
2023/11/21 01:17:27;;;;;;;2.05;1.70;;;22.40;58.30;;;;;;4918335;28;91722;-93
2023/11/21 01:19:52;;;;;;;2.05;1.65;;;22.40;58.30;;;;;;4918489;28;91178;-90
2023/11/21 01:22:22;;;;;;;2.42;1.88;;;22.40;58.40;;;;;;4918246;28;87452;-91
2023/11/21 01:24:47;;;;;;;;;;;22.40;58.20;;;;;;4903418;28;88370;-90
2023/11/21 01:27:13;;;;;;;2.63;1.75;;;22.40;58.40;;;;;;4910758;28;90249;-94
2023/11/21 01:29:39;;;;;;;2.15;1.55;;;22.40;58.30;;;;;;4922063;28;90134;-91
2023/11/21 01:32:10;;;;;;;2.47;1.50;;;22.30;58.40;;;;;;4922584;28;87345;-92
2023/11/21 01:34:39;;;;;;;2.13;1.40;;;22.40;58.40;;;;;;4918859;28;88154;-91
2023/11/21 01:37:05;;;;;;;1.58;1.27;;;22.30;58.30;;;;;;4919178;28;91183;-90
2023/11/21 01:39:34;;;;;;;2.35;1.90;;;22.30;58.30;;;;;;4921905;28;88671;-90
2023/11/21 01:42:00;;;;;;;2.67;1.55;;;22.30;58.30;;;;;;4918394;28;88951;-91
2023/11/21 01:44:25;;;;;;;3.17;2.35;;;22.30;58.40;;;;;;4917851;28;88431;-90
2023/11/21 01:46:52;;;;;;;1.65;1.52;;;22.30;58.40;;;;;;4917354;28;90455;-92
2023/11/21 01:49:18;;;;;;;1.85;1.75;;;22.20;58.40;;;;;;4921132;28;90420;-92
2023/11/21 01:51:49;;;;;;;3.20;1.80;;;22.20;58.30;;;;;;4919274;28;87634;-91
2023/11/21 01:54:17;;;;;;;2.42;1.70;;;22.20;58.50;;;;;;4918647;28;89941;-90
2023/11/21 01:56:45;;;;;;;3.55;2.17;;;22.20;58.50;;;;;;4920026;28;90279;-91
2023/11/21 01:59:14;;;;;;;2.05;1.85;;;22.20;58.40;;;;;;4937409;28;90484;-91
2023/11/21 02:01:41;;;;;;;1.90;1.70;;;22.20;58.40;;;;;;4916394;28;87525;-90
2023/11/21 02:04:08;;;;;;;2.28;1.73;;;22.20;58.30;;;;;;4916608;28;88370;-92
2023/11/21 02:06:34;;;;;;;2.03;1.50;;;22.10;58.40;;;;;;4918293;28;91599;-89
2023/11/21 02:09:08;;;;;;;3.05;2.03;;;22.20;58.40;;;;;;4917357;28;91060;-91
2023/11/21 02:11:39;;;;;;;2.28;1.80;;;22.20;58.50;;;;;;4919313;28;87257;-88
2023/11/21 02:14:09;;;;;;;2.00;1.52;;;22.10;58.30;;;;;;4923421;28;88498;-91
2023/11/21 02:16:35;;;;;;;3.17;1.73;;;22.10;58.30;;;;;;4920290;28;90503;-91
2023/11/21 02:19:03;;;;;;;2.92;2.05;;;22.10;58.50;;;;;;4923093;28;89221;-90
2023/11/21 02:21:32;;;;;;;2.00;1.67;;;22.10;58.40;;;;;;4907631;28;87628;-90
2023/11/21 02:23:58;;;;;;;4.30;2.35;;;22.10;58.30;;;;;;4917867;28;88325;-89
2023/11/21 02:26:34;;;;;;;2.53;1.88;;;22.10;58.40;;;;;;4926645;28;88166;-92
2023/11/21 02:29:04;;;;;;;1.70;1.58;;;22.10;58.40;;;;;;4913066;28;88686;-91
2023/11/21 02:31:31;;;;;;;2.72;1.90;;;22.10;58.40;;;;;;4923423;28;88399;-91
2023/11/21 02:34:00;;;;;;;2.30;1.75;;;22.00;58.40;;;;;;4915782;28;87909;-89
2023/11/21 02:36:29;;;;;;;1.70;1.60;;;22.00;58.40;;;;;;4920981;28;90618;-89
2023/11/21 02:38:55;;;;;;;2.00;1.55;;;22.10;58.50;;;;;;4921042;28;89453;-91
2023/11/21 02:41:21;;;;;;;2.78;1.92;;;22.00;58.50;;;;;;4922883;28;87980;-89
2023/11/21 02:43:46;;;;;;;2.30;1.63;;;22.00;58.40;;;;;;4914212;28;88676;-90
2023/11/21 02:46:12;;;;;;;2.42;1.90;;;22.00;58.70;;;;;;4921458;28;89597;-92
2023/11/21 02:48:38;;;;;;;2.13;1.70;;;22.00;58.50;;;;;;4913000;28;89780;-91
2023/11/21 02:51:04;;;;;;;2.47;1.75;;;21.90;58.30;;;;;;4922522;28;88037;-91
2023/11/21 02:53:29;;;;;;;2.55;1.85;;;21.90;58.40;;;;;;4924633;28;89688;-91
2023/11/21 02:55:55;;;;;;;2.85;1.92;;;21.90;58.30;;;;;;4919115;28;91475;-91
2023/11/21 02:58:21;;;;;;;2.17;1.70;;;21.90;58.50;;;;;;4919672;28;91223;-93
2023/11/21 03:00:47;;;;;;;2.20;2.00;;;21.90;58.20;;;;;;4921947;28;87922;-91
2023/11/21 03:03:14;;;;;;;2.25;1.98;;;21.90;58.40;;;;;;4920285;28;88669;-92
2023/11/21 03:05:42;;;;;;;2.75;2.05;;;21.90;58.40;;;;;;4921422;28;90158;-91
2023/11/21 03:08:08;;;;;;;2.72;1.90;;;21.90;58.30;;;;;;4920132;28;89227;-91
2023/11/21 03:10:34;;;;;;;3.33;2.17;;;21.90;58.30;;;;;;4919565;28;87710;-92
2023/11/21 03:13:04;;;;;;;2.80;2.10;;;21.90;58.40;;;;;;4921349;28;89561;-91
2023/11/21 03:15:32;;;;;;;2.60;2.00;;;21.90;58.40;;;;;;4922312;28;87813;-91
2023/11/21 03:18:01;;;;;;;1.83;1.63;;;21.90;58.40;;;;;;4924193;28;89028;-91
2023/11/21 03:20:26;;;;;;;2.13;1.57;;;21.90;58.40;;;;;;4923630;28;88482;-91
2023/11/21 03:22:52;;;;;;;2.05;1.80;;;21.80;58.40;;;;;;4920290;28;88919;-91
2023/11/21 03:25:18;;;;;;;2.15;1.85;;;21.80;58.50;;;;;;4920725;28;91034;-91
2023/11/21 03:27:49;;;;;;;1.95;1.63;;;21.90;58.40;;;;;;4921940;28;88914;-90
2023/11/21 03:30:15;;;;;;;2.08;1.70;;;21.80;58.30;;;;;;4921451;28;87440;-91
2023/11/21 03:32:42;;;;;;;2.45;1.92;;;21.80;58.40;;;;;;4920509;28;89781;-92
2023/11/21 03:35:11;;;;;;;2.33;2.05;;;21.80;58.40;;;;;;4921924;28;88962;-91
2023/11/21 03:37:42;;;;;;;1.97;1.70;;;21.80;58.60;;;;;;4914554;28;90279;-90
2023/11/21 03:40:09;;;;;;;2.60;2.15;;;21.80;58.40;;;;;;4920915;28;87742;-90
2023/11/21 03:42:35;;;;;;;2.20;2.00;;;21.80;58.50;;;;;;4921147;28;89039;-93
2023/11/21 03:45:00;;;;;;;2.33;1.85;;;21.80;58.50;;;;;;4920482;28;91452;-90
2023/11/21 03:47:31;;;;;;;2.30;2.10;;;21.80;58.70;;;;;;4921151;28;90664;-91
2023/11/21 03:49:57;;;;;;;2.17;1.77;;;21.70;58.60;;;;;;4921780;28;87374;-91
2023/11/21 03:52:28;;;;;;;2.30;2.00;;;21.80;58.50;;;;;;4919390;28;88547;-89
2023/11/21 03:54:55;;;;;;;2.50;2.30;;;21.70;58.50;;;;;;4938817;28;89129;-91
2023/11/21 03:57:21;;;;;;;2.88;2.00;;;21.70;58.70;;;;;;4921719;28;90239;-93
2023/11/21 03:59:47;;;;;;;1.70;1.60;;;21.70;58.60;;;;;;4922227;28;87450;-89
2023/11/21 04:02:12;;;;;;;2.30;1.90;;;21.70;58.60;;;;;;4920968;28;89279;-90
2023/11/21 04:04:39;;;;;;;2.85;2.17;;;21.70;58.60;;;;;;4919774;28;89816;-93
2023/11/21 04:07:08;;;;;;;2.28;1.90;;;21.70;58.50;;;;;;4920816;28;88940;-90
2023/11/21 04:09:35;;;;;;;2.58;2.22;;;21.70;58.70;;;;;;4921280;28;88372;-90
2023/11/21 04:12:01;;;;;;;2.42;2.20;;;21.70;58.50;;;;;;4920418;28;88410;-91
2023/11/21 04:14:27;;;;;;;2.05;1.85;;;21.70;58.50;;;;;;4921325;28;89968;-90
2023/11/21 04:16:53;;;;;;;2.53;1.98;;;21.70;58.60;;;;;;4921401;28;89911;-90
2023/11/21 04:19:21;;;;;;;2.67;2.28;;;21.60;58.50;;;;;;4920609;28;87249;-90
2023/11/21 04:21:47;;;;;;;2.17;1.95;;;21.60;58.60;;;;;;4936762;28;87812;-89
2023/11/21 04:24:13;;;;;;;3.13;2.47;;;21.60;58.60;;;;;;4920074;28;89470;-92
2023/11/21 04:26:38;;;;;;;2.53;2.08;;;21.60;58.50;;;;;;4920421;28;89931;-92
2023/11/21 04:29:04;;;;;;;2.22;2.03;;;21.60;58.70;;;;;;4911941;28;87478;-90
2023/11/21 04:31:32;;;;;;;2.35;1.90;;;21.60;58.60;;;;;;4920888;28;89998;-90
2023/11/21 04:33:58;;;;;;;2.33;2.13;;;21.60;58.50;;;;;;4909333;28;91095;-91
2023/11/21 04:36:26;;;;;;;2.78;2.03;;;21.60;58.40;;;;;;4919296;28;91037;-90
2023/11/21 04:38:52;;;;;;;2.85;2.30;;;21.60;58.70;;;;;;4937349;28;87633;-91
2023/11/21 04:41:18;;;;;;;2.40;1.80;;;21.60;58.50;;;;;;4919980;28;94038;-90
2023/11/21 04:43:43;;;;;;;2.33;2.13;;;21.60;58.70;;;;;;4918216;28;90897;-91
2023/11/21 04:46:09;;;;;;;3.38;2.53;;;21.60;58.40;;;;;;4918264;28;89038;-91
2023/11/21 04:48:35;;;;;;;2.42;2.10;;;21.60;58.60;;;;;;4919817;28;87543;-91
2023/11/21 04:51:00;;;;;;;2.00;1.80;;;21.60;58.60;;;;;;4917402;28;89519;-90
2023/11/21 04:53:26;;;;;;;2.78;2.20;;;21.50;58.60;;;;;;4921409;28;91531;-93
2023/11/21 04:55:52;;;;;;;2.50;2.30;;;21.50;58.60;;;;;;4898453;28;90683;-90
2023/11/21 04:58:19;;;;;;;2.15;1.95;;;21.50;58.50;;;;;;4919818;28;88397;-90
2023/11/21 05:00:44;;;;;;;3.17;2.50;;;21.50;58.40;;;;;;4919709;28;88061;-93
2023/11/21 05:03:10;;;;;;;2.78;2.13;;;21.50;58.30;;;;;;4918315;28;91010;-90
2023/11/21 05:05:36;;;;;;;2.40;2.20;;;21.50;58.30;;;;;;4918198;28;90429;-92
2023/11/21 05:08:05;;;;;;;3.20;2.58;;;21.50;58.20;;;;;;4919270;28;87988;-93
2023/11/21 05:10:30;;;;;;;3.13;2.10;;;21.50;58.20;;;;;;4918913;28;87988;-92
2023/11/21 05:12:56;;;;;;;2.83;2.13;;;21.50;58.30;;;;;;4918038;28;90962;-93
2023/11/21 05:15:23;;;;;;;2.20;2.00;;;21.50;58.40;;;;;;4909078;28;89679;-91
2023/11/21 05:17:49;;;;;;;3.20;2.45;;;21.50;58.40;;;;;;4921388;28;87155;-90
2023/11/21 05:20:20;;;;;;;2.28;2.08;;;21.50;58.50;;;;;;4920196;28;87921;-91
2023/11/21 05:22:48;;;;;;;2.95;2.60;;;21.50;58.50;;;;;;4919009;28;91700;-90
2023/11/21 05:25:14;;;;;;;2.80;2.30;;;21.40;58.50;;;;;;4914824;28;91036;-92
2023/11/21 05:27:40;;;;;;;2.78;2.38;;;21.50;58.60;;;;;;4918679;28;87896;-94
2023/11/21 05:30:06;;;;;;;3.25;2.60;;;21.50;58.50;;;;;;4916925;28;88640;-91
2023/11/21 05:32:33;;;;;;;3.90;2.53;;;21.40;58.40;;;;;;4917873;28;90139;-90
2023/11/21 05:34:59;;;;;;;3.22;2.20;;;21.40;58.20;;;;;;4918745;28;90040;-92
2023/11/21 05:37:26;;;;;;;3.72;2.63;;;21.40;58.40;;;;;;4917815;28;87385;-91
2023/11/21 05:39:53;;;;;;;2.78;2.47;;;21.40;58.30;;;;;;4918147;28;88970;-90
2023/11/21 05:44:52;;;;;;;2.67;2.22;;;21.40;58.40;;;;;;4905434;28;90138;-91
2023/11/21 05:47:18;;;;;;;2.42;2.22;;;21.40;58.70;;;;;;4921874;28;88005;-90
2023/11/21 05:49:45;;;;;;;2.75;2.35;;;21.40;58.70;;;;;;4924418;28;89243;-89
2023/11/21 05:52:13;;;;;;;3.22;2.85;;;21.40;58.60;;;;;;4922630;28;90427;-90
2023/11/21 05:54:38;;;;;;;2.67;2.42;;;21.40;58.60;;;;;;4918537;28;88798;-92
2023/11/21 05:57:04;;;;;;;2.67;2.47;;;21.40;58.50;;;;;;4922789;28;87577;-89
2023/11/21 05:59:33;;;;;;;3.28;2.67;;;21.40;58.60;;;;;;4921653;28;89650;-90
2023/11/21 06:02:02;;;;;;;2.70;2.50;;;21.40;58.50;;;;;;4925187;28;87845;-90
2023/11/21 06:04:27;;;;;;;2.50;2.30;;;21.40;58.70;;;;;;4919882;28;90118;-90
2023/11/21 06:06:56;;;;;;;3.17;2.47;;;21.40;58.50;;;;;;4916385;28;87451;-89
2023/11/21 06:09:22;;;;;;;3.72;2.60;;;21.30;58.40;;;;;;4924175;28;89377;-90
2023/11/21 06:11:48;;;;;;;3.72;2.67;;;21.30;58.60;;;;;;4923296;28;90344;-90
2023/11/21 06:14:17;;;;;;;3.08;2.70;;;21.30;58.60;;;;;;4921217;28;90876;-90
2023/11/21 06:16:45;;;;;;;;;;;21.30;58.50;;;;;;4922181;28;87347;-92
2023/11/21 06:19:11;;;;;;;3.55;2.83;;;21.30;58.40;;;;;;4923145;28;87871;-91
2023/11/21 06:21:39;;;;;;;4.25;2.53;;;21.30;58.50;;;;;;4911849;28;89297;-92
2023/11/21 06:24:05;;;;;;;2.75;2.53;;;21.30;58.60;;;;;;4921791;28;89382;-91
2023/11/21 06:26:31;;;;;;;2.60;2.33;;;21.30;58.80;;;;;;4923324;28;87442;-90
2023/11/21 06:28:57;;;;;;;3.08;2.58;;;21.30;58.60;;;;;;4922212;28;88609;-91
2023/11/21 06:31:23;;;;;;;2.58;2.20;;;21.30;58.60;;;;;;4921058;28;89924;-93
2023/11/21 06:33:49;;;;;;;3.88;2.75;;;21.30;58.60;;;;;;4922075;28;90099;-92
2023/11/21 06:36:16;;;;;;;3.28;2.50;;;21.30;58.50;;;;;;4925794;28;88536;-93
2023/11/21 06:38:51;;;;;;;;;;;;;;;;;;;;;
2023/11/21 06:41:17;;;;;;;3.45;2.70;;;21.30;58.60;;;;;;4925207;28;93531;-92
2023/11/21 06:43:46;;;;;;;3.13;2.35;;;21.30;58.60;;;;;;4923314;28;89307;-92
2023/11/21 06:46:14;;;;;;;3.05;2.75;;;21.30;58.60;;;;;;4925340;28;87840;-91
2023/11/21 06:48:42;;;;;;;3.78;2.97;;;21.20;58.50;;;;;;4920936;28;88571;-89
2023/11/21 06:51:08;;;;;;;3.88;2.70;;;21.20;58.50;;;;;;4923209;28;90615;-91
2023/11/21 06:53:34;;;;;;;3.33;2.83;;;21.20;58.70;;;;;;4923347;28;90060;-90
2023/11/21 06:55:59;;;;;;;2.88;2.45;;;21.20;58.60;;;;;;4922487;28;87679;-90
2023/11/21 06:58:25;;;;;;;2.70;2.50;;;21.20;58.80;;;;;;4920258;28;90039;-90
2023/11/21 07:00:52;;;;;;;3.67;3.28;;;21.20;58.70;;;;;;4920158;28;91374;-91
2023/11/21 07:03:19;;;;;;;4.00;2.90;;;21.20;58.70;;;;;;4922250;28;90136;-90
2023/11/21 07:05:45;;;;;;;2.88;2.42;;;21.20;58.70;;;;;;4922359;28;87709;-90
2023/11/21 07:08:10;;;;;;;2.85;2.58;;;21.20;58.50;;;;;;4918483;28;88866;-91
2023/11/21 07:10:36;;;;;;;2.97;2.40;;;21.20;58.70;;;;;;4919380;28;90286;-91
2023/11/21 07:13:02;;;;;;;4.75;3.15;;;21.20;58.50;;;;;;4920583;28;90904;-92
2023/11/21 07:15:30;;;;;;;3.53;2.75;;;21.20;58.70;;;;;;4909815;28;87843;-92
2023/11/21 07:17:56;;;;;;;3.88;2.83;;;21.20;58.60;;;;;;4909286;28;88825;-90
2023/11/21 07:20:21;;;;;;;3.00;2.67;;;21.20;58.70;;;;;;4919788;28;90510;-92
2023/11/21 07:22:47;;;;;;;3.08;2.63;;;21.20;58.70;;;;;;4913739;28;89906;-85
2023/11/21 07:25:16;;;;;;;3.50;2.72;;;21.20;58.40;;;;;;4918211;28;88405;-92
2023/11/21 07:27:41;;;;;;;11.73;3.27;;;21.20;58.20;;;;;;4922409;28;88059;-93
2023/11/21 07:30:10;;;;;;;4.25;3.42;;;21.20;58.60;;;;;;4920988;28;89945;-91
2023/11/21 07:33:16;;;;;;;6.85;4.68;;;21.10;59.00;;;;;;4924098;28;89075;-95
2023/11/21 07:35:41;;;;;;;4.93;4.00;;;21.20;58.40;;;;;;4922075;28;87479;-91
2023/11/21 07:38:23;;;;;;;4.38;3.90;;;21.20;58.60;;;;;;4898327;28;87915;-93
2023/11/21 07:43:51;;;;;;;5.65;4.00;;;21.20;58.50;;;;;;4962203;23;87051;-90
2023/11/21 07:52:37;;;;;;;;;;;;;;;;;;;;;
2023/11/21 07:55:03;;;;;;;9.48;5.47;;;21.30;59.00;;;;;;4919017;28;91454;-90
2023/11/21 07:57:29;;;;;;;11.93;6.00;;;21.40;58.80;;;;;;4918842;28;87450;-88
2023/11/21 07:59:55;;;;;;;11.95;5.88;;;21.40;58.40;;;;;;4935793;28;87652;-89
2023/11/21 08:02:20;;;;;;;8.55;5.55;;;21.40;58.70;;;;;;4918094;28;89260;-90
2023/11/21 08:04:49;;;;;;;9.27;5.78;;;21.40;58.80;;;;;;4917343;28;87769;-89
2023/11/21 08:07:16;;;;;;;7.88;4.72;;;21.50;59.00;;;;;;4915640;28;87744;-89
2023/11/21 08:09:44;;;;;;;8.43;5.38;;;21.50;59.10;;;;;;4929926;28;89747;-87
2023/11/21 08:12:10;;;;;;;7.57;5.28;;;21.50;59.00;;;;;;4915423;28;88980;-92
2023/11/21 08:14:38;;;;;;;7.38;5.45;;;21.50;59.10;;;;;;4918555;28;88991;-88
2023/11/21 08:17:04;;;;;;;6.75;5.18;;;21.50;59.20;;;;;;4905508;28;87850;-88
2023/11/21 08:19:30;;;;;;;9.85;4.80;;;21.50;59.30;;;;;;4918208;28;90011;-89
2023/11/21 08:21:55;;;;;;;6.03;4.80;;;21.50;59.60;;;;;;4919359;28;91387;-87
2023/11/21 08:24:21;;;;;;;7.53;5.07;;;21.40;59.30;;;;;;4916073;28;90018;-89
2023/11/21 08:26:47;;;;;;;7.40;4.93;;;21.50;59.40;;;;;;4921827;28;87736;-90
2023/11/21 08:29:13;;;;;;;7.57;5.20;;;21.50;59.60;;;;;;4908729;28;87729;-88
2023/11/21 08:31:39;;;;;;;5.90;4.70;;;21.50;59.40;;;;;;4915755;28;87698;-91
2023/11/21 08:34:06;;;;;;;7.70;5.65;;;21.50;59.40;;;;;;4919141;28;89951;-90
2023/11/21 08:36:32;;;;;;;5.78;4.43;;;21.40;59.50;;;;;;4929480;28;87522;-88
2023/11/21 08:38:58;;;;;;;6.93;5.28;;;21.50;59.50;;;;;;4908360;28;89011;-90
2023/11/21 08:41:24;;;;;;;7.40;5.20;;;21.50;59.60;;;;;;4930724;28;92443;-88
2023/11/21 08:43:50;;;;;;;15.52;7.22;;;21.50;59.40;;;;;;4915625;28;91074;-91
2023/11/21 08:46:19;;;;;;;13.32;6.90;;;21.50;59.30;;;;;;4923695;28;87355;-91
2023/11/21 08:49:01;;;;;;;15.98;6.22;;;21.50;59.50;;;;;;4923568;28;88387;-94
2023/11/21 08:51:27;;;;;;;8.07;5.20;;;21.50;59.10;;;;;;4924030;28;90724;-92
2023/11/21 08:53:53;;;;;;;11.15;5.05;;;21.50;59.20;;;;;;4922079;28;88909;-92
2023/11/21 08:56:19;;;;;;;9.32;4.97;;;21.50;58.90;;;;;;4925686;28;87755;-91
2023/11/21 08:58:50;;;;;;;12.18;5.57;;;21.60;59.10;;;;;;4924491;28;88778;-92
2023/11/21 09:01:25;;;;;;;10.90;4.80;;;21.60;59.10;;;;;;4956574;28;88119;-93
2023/11/21 09:03:51;;;;;;;9.68;5.78;;;21.60;59.20;;;;;;4937907;28;87608;-92
2023/11/21 09:06:17;;;;;;;9.75;5.10;;;21.60;59.20;;;;;;4919031;28;88190;-96
2023/11/21 09:08:43;;;;;;;12.15;5.88;;;21.70;59.10;;;;;;4918715;28;87461;-93
2023/11/21 09:11:09;;;;;;;8.65;4.63;;;21.70;58.80;;;;;;4920143;28;88204;-92
2023/11/21 09:13:34;;;;;;;14.48;5.45;;;21.70;58.90;;;;;;4921025;28;88683;-93
2023/11/21 09:16:00;;;;;;;11.35;5.50;;;21.70;59.20;;;;;;4918946;28;88306;-92
2023/11/21 09:18:26;;;;;;;8.07;5.20;;;21.70;59.80;;;;;;4919656;28;90545;-94
2023/11/21 09:20:54;;;;;;;11.07;5.13;;;21.70;59.20;;;;;;4919422;28;91247;-92
2023/11/21 09:23:21;;;;;;;9.67;5.43;;;21.70;59.00;;;;;;4911668;28;92864;-94
2023/11/21 09:25:49;;;;;;;10.55;4.90;;;21.70;58.90;;;;;;4928370;28;87481;-95
2023/11/21 09:28:17;;;;;;;7.15;5.20;;;21.70;58.90;;;;;;4919019;28;89626;-93
2023/11/21 09:30:43;;;;;;;10.25;6.03;;;21.80;58.90;;;;;;4919003;28;89554;-92
2023/11/21 09:33:10;;;;;;;8.02;5.22;;;21.80;59.00;;;;;;4920399;28;88688;-91
2023/11/21 09:35:38;;;;;;;6.95;5.53;;;21.80;59.10;;;;;;4920200;28;87182;-93
2023/11/21 09:38:09;;;;;;;13.02;5.93;;;21.70;59.20;;;;;;4919471;28;89326;-91
2023/11/21 09:40:35;;;;;;;12.10;6.47;;;21.70;58.50;;;;;;4920524;28;91848;-92
2023/11/21 09:43:15;;;;;;;12.30;6.32;;;21.70;59.10;;;;;;4917600;28;87482;-94
2023/11/21 09:45:59;;;;;;;15.35;6.72;;;21.70;59.40;;;;;;4916002;28;87360;-89
2023/11/21 09:48:26;;;;;;;8.98;5.57;;;21.70;58.80;;;;;;4928037;28;88922;-91
2023/11/21 09:50:53;;;;;;;10.52;6.43;;;21.70;59.00;;;;;;4918479;28;90344;-91
2023/11/21 09:53:24;;;;;;;10.88;6.07;;;21.80;59.10;;;;;;4919042;28;92294;-90
2023/11/21 09:55:54;;;;;;;11.55;5.60;;;21.80;59.10;;;;;;4932251;28;88583;-94
2023/11/21 09:58:24;;;;;;;14.40;6.70;;;21.80;59.10;;;;;;4921137;28;87395;-94
2023/11/21 10:00:53;;;;;;;10.32;5.55;;;21.80;59.30;;;;;;4916830;28;90282;-93
2023/11/21 10:03:19;;;;;;;12.13;6.53;;;21.80;59.30;;;;;;4934251;28;89547;-92
2023/11/21 10:05:56;;;;;;;12.45;6.35;;;21.80;59.20;;;;;;4916325;28;87693;-92
2023/11/21 10:08:24;;;;;;;9.95;6.22;;;21.80;59.20;;;;;;4916387;28;92201;-92
2023/11/21 10:10:52;;;;;;;11.75;6.07;;;21.80;60.20;;;;;;4914801;28;87969;-93
2023/11/21 10:13:19;;;;;;;9.88;5.25;;;21.80;59.50;;;;;;4930930;28;90891;-93
2023/11/21 10:15:50;;;;;;;12.40;6.20;;;21.80;59.80;;;;;;4904499;28;87512;-91
2023/11/21 10:18:17;;;;;;;11.07;6.13;;;21.80;59.60;;;;;;4912061;28;87925;-90
2023/11/21 10:20:44;;;;;;;11.63;6.13;;;21.80;59.70;;;;;;4914456;28;89202;-94
2023/11/21 10:23:11;;;;;;;11.80;5.97;;;21.80;59.50;;;;;;4920997;28;87685;-93
2023/11/21 10:25:37;;;;;;;11.88;6.05;;;21.80;59.70;;;;;;4914120;28;87555;-94
2023/11/21 10:28:06;;;;;;;11.13;6.45;;;21.80;59.70;;;;;;4915332;28;90914;-91
2023/11/21 10:30:38;;;;;;;;;;;21.80;59.30;;;;;;4915948;28;89065;-93
2023/11/21 10:33:11;;;;;;;11.82;6.28;;;21.80;59.50;;;;;;4931076;28;87964;-91
2023/11/21 10:35:48;;;;;;;12.75;6.35;;;21.90;59.60;;;;;;4917568;28;87892;-90
2023/11/21 10:38:14;;;;;;;10.63;5.50;;;21.80;59.60;;;;;;4949301;28;87247;-93
2023/11/21 10:40:46;;;;;;;10.15;5.43;;;21.90;59.80;;;;;;4915706;28;89774;-91
2023/11/21 10:43:18;;;;;;;8.60;5.63;;;21.90;59.80;;;;;;4912032;28;88643;-91
2023/11/21 10:45:44;;;;;;;12.05;6.30;;;21.90;59.40;;;;;;4915702;28;88792;-93
2023/11/21 10:48:15;;;;;;;12.00;5.43;;;21.90;59.60;;;;;;4938877;28;87499;-91
2023/11/21 10:50:42;;;;;;;10.85;6.07;;;21.90;59.60;;;;;;4919472;28;89507;-94
2023/11/21 10:53:08;;;;;;;11.20;6.40;;;21.90;59.70;;;;;;4921478;28;87477;-93
2023/11/21 10:55:34;;;;;;;10.80;5.78;;;21.90;59.70;;;;;;4933941;28;87880;-90
2023/11/21 10:58:04;;;;;;;11.27;5.57;;;21.90;59.60;;;;;;4918942;28;87559;-94
2023/11/21 11:00:31;;;;;;;10.40;5.32;;;21.90;59.60;;;;;;4919673;28;90168;-91
2023/11/21 11:02:58;;;;;;;8.50;5.03;;;21.90;59.80;;;;;;4919265;28;89585;-92
2023/11/21 11:05:25;;;;;;;11.07;5.75;;;21.90;59.70;;;;;;4918605;28;88111;-92
2023/11/21 11:08:07;;;;;;;9.50;5.72;;;21.90;60.00;;;;;;4910972;28;88039;-92
2023/11/21 11:10:50;;;;;;;11.15;5.82;;;21.90;59.80;;;;;;4920242;28;90992;-94
2023/11/21 11:13:16;;;;;;;9.13;5.70;;;21.90;60.00;;;;;;4925181;28;91807;-93
2023/11/21 11:15:44;;;;;;;9.40;5.43;;;21.90;60.00;;;;;;4924336;28;87319;-93
2023/11/21 11:18:14;;;;;;;11.05;5.35;;;21.90;60.00;;;;;;4952689;28;89320;-94
2023/11/21 11:20:42;;;;;;;8.10;5.03;;;21.90;59.70;;;;;;4904503;28;90380;-93
2023/11/21 11:23:45;;;;;;;7.63;5.20;;;21.90;60.00;;;;;;4935595;28;89942;-96
2023/11/21 11:26:28;;;;;;;8.88;5.15;;;21.90;60.00;;;;;;4934795;28;87542;-94
2023/11/21 11:29:08;;;;;;;9.20;5.28;;;21.90;59.70;;;;;;4918643;28;88201;-93
2023/11/21 11:31:45;;;;;;;9.55;5.30;;;22.00;59.80;;;;;;4932867;28;89185;-95
2023/11/21 11:34:11;;;;;;;13.35;5.57;;;21.90;59.90;;;;;;4917489;28;89470;-93
2023/11/21 11:36:55;;;;;;;10.32;5.40;;;21.90;60.00;;;;;;4916487;28;88936;-93
2023/11/21 11:39:28;;;;;;;16.80;5.20;;;21.90;59.90;;;;;;4917356;28;87828;-94
2023/11/21 11:41:57;;;;;;;9.73;5.70;;;21.90;59.90;;;;;;4918069;28;89555;-93
2023/11/21 11:44:49;;;;;;;7.65;4.95;;;21.90;59.90;;;;;;4918850;28;87428;-94
2023/11/21 11:47:32;;;;;;;7.40;4.82;;;21.90;59.80;;;;;;4918018;28;87372;-94
2023/11/21 11:50:13;;;;;;;8.65;4.63;;;21.90;59.90;;;;;;4917753;28;87460;-95
2023/11/21 11:52:46;;;;;;;8.50;5.25;;;21.90;60.60;;;;;;4950500;28;91428;-93
2023/11/21 11:55:14;;;;;;;10.68;5.40;;;21.90;59.70;;;;;;4918147;28;88598;-94
2023/11/21 11:57:41;;;;;;;10.93;5.82;;;21.90;59.60;;;;;;4881349;28;87257;-94
2023/11/21 12:00:22;;;;;;;10.10;4.85;;;21.90;59.40;;;;;;4934795;28;88341;-93
2023/11/21 12:02:49;;;;;;;9.30;4.65;;;21.90;59.60;;;;;;4935453;28;89077;-93
2023/11/21 12:05:28;;;;;;;8.88;4.32;;;21.90;59.40;;;;;;4919571;28;91141;-94
2023/11/21 12:07:57;;;;;;;7.85;4.60;;;22.00;59.40;;;;;;4919435;28;87628;-93
2023/11/21 12:10:28;;;;;;;8.63;4.70;;;21.90;59.30;;;;;;4934539;28;89050;-94
2023/11/21 12:12:58;;;;;;;7.47;5.13;;;22.00;59.50;;;;;;4918569;28;89071;-94
2023/11/21 12:15:25;;;;;;;6.47;4.75;;;21.90;59.50;;;;;;4918819;28;88070;-96
2023/11/21 12:17:51;;;;;;;7.70;4.72;;;21.90;59.40;;;;;;4935021;28;87542;-94
2023/11/21 12:20:22;;;;;;;12.25;5.10;;;22.00;59.60;;;;;;4917707;28;89994;-96
2023/11/21 12:22:49;;;;;;;9.13;5.53;;;21.90;59.40;;;;;;4917626;28;89679;-94
2023/11/21 12:25:21;;;;;;;7.18;4.63;;;21.90;59.50;;;;;;4918809;28;89919;-94
2023/11/21 12:27:52;;;;;;;7.75;4.45;;;21.90;59.40;;;;;;4918329;28;88104;-95
2023/11/21 12:30:19;;;;;;;8.20;4.30;;;21.90;59.40;;;;;;4933883;28;88268;-95
2023/11/21 12:32:49;;;;;;;7.15;3.97;;;21.90;59.40;;;;;;4950970;28;90190;-94
2023/11/21 12:35:19;;;;;;;8.23;4.47;;;21.90;59.50;;;;;;4918472;28;90129;-94
2023/11/21 12:37:48;;;;;;;7.40;4.60;;;21.90;59.20;;;;;;4919759;28;87994;-94
2023/11/21 12:40:15;;;;;;;;;;;21.90;59.30;;;;;;4920256;28;89947;-94
2023/11/21 12:42:49;;;;;;;9.18;5.65;;;21.90;59.10;;;;;;4922951;28;90135;-94
2023/11/21 12:45:21;;;;;;;10.77;5.35;;;21.90;58.60;;;;;;4920234;28;88512;-92
2023/11/21 12:47:50;;;;;;;8.82;5.07;;;22.00;58.80;;;;;;4919843;28;87421;-93
2023/11/21 12:50:23;;;;;;;9.38;5.15;;;22.00;58.70;;;;;;4919533;28;88905;-94
2023/11/21 12:52:50;;;;;;;9.27;4.82;;;22.00;58.80;;;;;;4931472;28;90947;-94
2023/11/21 12:55:18;;;;;;;11.68;5.95;;;21.90;58.40;;;;;;4906886;28;88808;-92
2023/11/21 12:57:44;;;;;;;14.13;6.57;;;22.00;58.10;;;;;;4915489;28;87523;-92
2023/11/21 13:00:27;;;;;;;9.15;6.90;;;21.90;57.80;;;;;;4900333;28;89239;-91
2023/11/21 13:02:54;;;;;;;10.32;5.95;;;22.00;58.00;;;;;;4915917;28;90105;-93
2023/11/21 13:05:31;;;;;;;12.43;5.72;;;22.00;58.30;;;;;;4912582;28;89510;-91